createdAt,value
2018-08-11T00:00:21.347Z,35.6
2018-08-11T00:01:23.812Z,35.6
2018-08-11T00:02:25.737Z,35.5
2018-08-11T00:03:27.926Z,35.8
2018-08-11T00:04:30.384Z,35.5
2018-08-11T00:05:32.289Z,35.7
2018-08-11T00:06:34.736Z,35.6
2018-08-11T00:07:37.200Z,35.6
2018-08-11T00:08:39.372Z,35.6
2018-08-11T00:09:41.519Z,35.6
2018-08-11T00:10:43.400Z,35.6
2018-08-11T00:11:45.281Z,35.5
2018-08-11T00:12:47.181Z,35.6
2018-08-11T00:13:49.625Z,35.5
2018-08-11T00:14:51.526Z,35.7
2018-08-11T00:15:53.980Z,35.8
2018-08-11T00:16:55.630Z,35.5
2018-08-11T00:17:58.076Z,35.6
2018-08-11T00:19:00.215Z,35.7
2018-08-11T00:20:02.388Z,35.7
2018-08-11T00:21:04.286Z,35.6
2018-08-11T00:22:06.741Z,35.6
2018-08-11T00:23:09.176Z,35.7
2018-08-11T00:24:11.083Z,35.8
2018-08-11T00:25:13.237Z,35.6
2018-08-11T00:26:15.676Z,35.7
2018-08-11T00:27:17.827Z,35.8
2018-08-11T00:28:20.275Z,35.6
2018-08-11T00:29:22.740Z,35.8
2018-08-11T00:30:25.189Z,35.6
2018-08-11T00:31:27.626Z,35.7
2018-08-11T00:32:29.241Z,35.6
2018-08-11T00:33:31.685Z,35.5
2018-08-11T00:34:33.865Z,35.7
2018-08-11T00:35:36.305Z,35.9
2018-08-11T00:36:38.756Z,35.8
2018-08-11T00:37:41.202Z,35.8
2018-08-11T00:38:43.354Z,35.6
2018-08-11T00:39:45.536Z,35.5
2018-08-11T00:40:47.443Z,35.7
2018-08-11T00:41:49.915Z,35.7
2018-08-11T00:42:52.099Z,35.8
2018-08-11T00:43:54.000Z,35.7
2018-08-11T00:44:55.893Z,35.7
2018-08-11T00:45:57.797Z,35.9
2018-08-11T00:46:59.967Z,35.9
2018-08-11T00:48:02.162Z,35.7
2018-08-11T00:49:04.335Z,35.8
2018-08-11T00:50:06.510Z,35.7
2018-08-11T00:51:08.951Z,35.7
2018-08-11T00:52:11.398Z,35.7
2018-08-11T00:53:13.877Z,35.8
2018-08-11T00:54:16.051Z,35.7
2018-08-11T00:55:18.487Z,35.7
2018-08-11T00:56:20.945Z,35.7
2018-08-11T00:57:23.400Z,35.8
2018-08-11T00:58:25.548Z,35.8
2018-08-11T00:59:27.457Z,35.8
2018-08-11T01:00:29.620Z,35.7
2018-08-11T01:01:32.075Z,35.8
2018-08-11T01:02:34.262Z,35.7
2018-08-11T01:03:36.706Z,35.8
2018-08-11T01:04:38.922Z,35.7
2018-08-11T01:05:40.821Z,35.7
2018-08-11T01:06:43.003Z,35.8
2018-08-11T01:07:45.164Z,35.8
2018-08-11T01:08:47.077Z,35.9
2018-08-11T01:09:49.521Z,35.9
2018-08-11T01:10:52.067Z,35.8
2018-08-11T01:11:54.414Z,35.9
2018-08-11T01:12:56.861Z,35.7
2018-08-11T01:13:59.046Z,35.8
2018-08-11T01:15:01.496Z,35.7
2018-08-11T01:16:03.939Z,35.7
2018-08-11T01:17:05.836Z,35.8
2018-08-11T01:18:08.272Z,35.8
2018-08-11T01:19:10.460Z,35.8
2018-08-11T01:20:12.643Z,35.8
2018-08-11T01:21:14.830Z,35.9
2018-08-11T01:22:16.992Z,35.7
2018-08-11T01:23:18.622Z,35.8
2018-08-11T01:24:21.058Z,35.8
2018-08-11T01:25:23.512Z,35.7
2018-08-11T01:26:25.696Z,35.7
2018-08-11T01:27:28.149Z,35.8
2018-08-11T01:28:30.337Z,35.9
2018-08-11T01:29:32.260Z,35.8
2018-08-11T01:30:34.731Z,35.7
2018-08-11T01:31:36.902Z,36
2018-08-11T01:32:38.512Z,35.8
2018-08-11T01:33:40.948Z,35.9
2018-08-11T01:34:43.417Z,35.8
2018-08-11T01:35:45.589Z,35.9
2018-08-11T01:36:48.048Z,35.8
2018-08-11T01:37:50.241Z,35.9
2018-08-11T01:38:52.417Z,35.9
2018-08-11T01:39:54.892Z,35.8
2018-08-11T01:40:57.073Z,35.8
2018-08-11T01:41:59.242Z,35.8
2018-08-11T01:43:01.405Z,35.8
2018-08-11T01:44:03.631Z,35.8
2018-08-11T01:45:05.590Z,36
2018-08-11T01:46:08.054Z,35.8
2018-08-11T01:47:10.240Z,35.9
2018-08-11T01:48:12.432Z,35.8
2018-08-11T01:49:14.346Z,35.9
2018-08-11T01:50:15.960Z,35.8
2018-08-11T01:51:18.410Z,36
2018-08-11T01:52:20.867Z,35.8
2018-08-11T01:53:23.037Z,35.8
2018-08-11T01:54:24.636Z,35.7
2018-08-11T01:55:26.797Z,35.7
2018-08-11T01:56:29.260Z,35.9
2018-08-11T01:57:31.419Z,35.9
2018-08-11T01:58:33.304Z,36
2018-08-11T01:59:35.474Z,35.8
2018-08-11T02:00:37.916Z,35.9
2018-08-11T02:01:40.088Z,35.7
2018-08-11T02:02:42.526Z,35.8
2018-08-11T02:03:44.405Z,35.9
2018-08-11T02:04:46.852Z,35.8
2018-08-11T02:05:49.047Z,35.8
2018-08-11T02:06:50.975Z,35.7
2018-08-11T02:07:52.894Z,35.9
2018-08-11T02:08:55.348Z,35.7
2018-08-11T02:09:57.520Z,35.9
2018-08-11T02:10:59.686Z,35.9
2018-08-11T02:12:01.576Z,35.8
2018-08-11T02:13:04.024Z,35.9
2018-08-11T02:14:05.950Z,35.9
2018-08-11T02:15:07.868Z,35.8
2018-08-11T02:16:10.305Z,35.9
2018-08-11T02:17:12.216Z,36
2018-08-11T02:18:14.406Z,36.1
2018-08-11T02:19:16.594Z,35.8
2018-08-11T02:20:19.047Z,35.8
2018-08-11T02:21:21.198Z,35.8
2018-08-11T02:22:23.652Z,36
2018-08-11T02:23:26.098Z,35.8
2018-08-11T02:24:28.259Z,35.7
2018-08-11T02:25:30.455Z,35.9
2018-08-11T02:26:32.637Z,35.8
2018-08-11T02:27:34.817Z,35.9
2018-08-11T02:28:36.969Z,35.9
2018-08-11T02:29:39.414Z,35.8
2018-08-11T02:30:41.596Z,35.9
2018-08-11T02:31:44.036Z,35.9
2018-08-11T02:32:45.919Z,36
2018-08-11T02:33:48.095Z,36
2018-08-11T02:34:50.272Z,35.8
2018-08-11T02:35:52.726Z,35.8
2018-08-11T02:36:54.600Z,35.8
2018-08-11T02:37:57.066Z,35.9
2018-08-11T02:38:59.245Z,36
2018-08-11T02:40:01.419Z,35.9
2018-08-11T02:41:03.587Z,35.9
2018-08-11T02:42:05.777Z,35.9
2018-08-11T02:43:07.937Z,35.9
2018-08-11T02:44:10.383Z,36
2018-08-11T02:45:12.875Z,35.7
2018-08-11T02:46:15.047Z,36
2018-08-11T02:47:17.490Z,36
2018-08-11T02:48:19.649Z,35.8
2018-08-11T02:49:22.104Z,36.1
2018-08-11T02:50:24.300Z,35.9
2018-08-11T02:51:26.189Z,35.8
2018-08-11T02:52:28.651Z,36
2018-08-11T02:53:31.088Z,35.7
2018-08-11T02:54:33.243Z,36
2018-08-11T02:55:35.677Z,35.7
2018-08-11T02:56:38.126Z,35.8
2018-08-11T02:57:40.317Z,35.9
2018-08-11T02:58:42.468Z,35.8
2018-08-11T02:59:44.639Z,35.9
2018-08-11T03:00:46.806Z,35.9
2018-08-11T03:01:49.001Z,35.9
2018-08-11T03:02:51.435Z,35.9
2018-08-11T03:03:53.617Z,35.9
2018-08-11T03:04:55.806Z,35.9
2018-08-11T03:05:58.273Z,36
2018-08-11T03:07:00.465Z,35.9
2018-08-11T03:08:02.643Z,35.7
2018-08-11T03:09:04.821Z,35.8
2018-08-11T03:10:07.271Z,35.6
2018-08-11T03:11:09.707Z,35.8
2018-08-11T03:12:11.889Z,35.8
2018-08-11T03:13:14.059Z,35.7
2018-08-11T03:14:16.503Z,35.8
2018-08-11T03:15:18.979Z,35.6
2018-08-11T03:16:21.149Z,35.7
2018-08-11T03:17:23.333Z,35.7
2018-08-11T03:18:24.961Z,35.8
2018-08-11T03:19:26.858Z,35.7
2018-08-11T03:20:29.306Z,35.6
2018-08-11T03:21:31.482Z,35.7
2018-08-11T03:22:33.942Z,35.6
2018-08-11T03:23:36.107Z,35.7
2018-08-11T03:24:38.268Z,35.8
2018-08-11T03:25:40.151Z,35.6
2018-08-11T03:26:42.341Z,35.7
2018-08-11T03:27:44.210Z,35.8
2018-08-11T03:28:45.809Z,35.6
2018-08-11T03:29:48.249Z,35.5
2018-08-11T03:30:50.428Z,35.6
2018-08-11T03:31:52.860Z,35.5
2018-08-11T03:32:55.040Z,35.6
2018-08-11T03:33:57.480Z,35.5
2018-08-11T03:34:59.383Z,35.5
2018-08-11T03:36:01.828Z,35.5
2018-08-11T03:37:03.706Z,35.6
2018-08-11T03:38:06.175Z,35.7
2018-08-11T03:39:08.386Z,35.6
2018-08-11T03:40:10.830Z,35.6
2018-08-11T03:41:12.711Z,35.6
2018-08-11T03:42:14.893Z,35.5
2018-08-11T03:43:17.065Z,35.5
2018-08-11T03:44:18.680Z,35.6
2018-08-11T03:45:21.126Z,35.5
2018-08-11T03:46:23.273Z,35.6
2018-08-11T03:47:25.462Z,35.6
2018-08-11T03:48:27.387Z,35.7
2018-08-11T03:49:29.840Z,35.5
2018-08-11T03:50:31.734Z,35.4
2018-08-11T03:51:34.177Z,35.5
2018-08-11T03:52:36.796Z,35.6
2018-08-11T03:53:39.550Z,35.3
2018-08-11T03:54:42.005Z,35.3
2018-08-11T03:55:44.177Z,35.5
2018-08-11T03:56:46.623Z,35.4
2018-08-11T03:57:49.072Z,35.5
2018-08-11T03:58:51.516Z,35.5
2018-08-11T03:59:53.699Z,35.4
2018-08-11T04:00:56.145Z,35.4
2018-08-11T04:01:58.327Z,35.5
2018-08-11T04:03:00.769Z,35.4
2018-08-11T04:04:02.367Z,35.4
2018-08-11T04:05:04.576Z,35.5
2018-08-11T04:06:07.033Z,35.4
2018-08-11T04:07:09.213Z,35.3
2018-08-11T04:08:11.670Z,35.3
2018-08-11T04:09:14.125Z,35.4
2018-08-11T04:10:16.287Z,35.4
2018-08-11T04:11:18.726Z,35.3
2018-08-11T04:12:20.880Z,35.4
2018-08-11T04:13:23.345Z,35.4
2018-08-11T04:14:25.221Z,35.4
2018-08-11T04:15:26.887Z,35.4
2018-08-11T04:16:29.346Z,35.4
2018-08-11T04:17:31.263Z,35.3
2018-08-11T04:18:33.245Z,35.5
2018-08-11T04:19:35.415Z,35.4
2018-08-11T04:20:37.586Z,35.3
2018-08-11T04:21:39.509Z,35.3
2018-08-11T04:22:41.694Z,35.5
2018-08-11T04:23:44.143Z,35.4
2018-08-11T04:24:46.593Z,35.4
2018-08-11T04:25:49.041Z,35.3
2018-08-11T04:26:51.487Z,35.3
2018-08-11T04:27:53.922Z,35.4
2018-08-11T04:28:56.108Z,35.3
2018-08-11T04:29:58.555Z,35.3
2018-08-11T04:31:00.737Z,35.4
2018-08-11T04:32:02.912Z,35.3
2018-08-11T04:33:05.364Z,35.4
2018-08-11T04:34:07.821Z,35.4
2018-08-11T04:35:10.255Z,35.3
2018-08-11T04:36:12.701Z,35.5
2018-08-11T04:37:14.606Z,35.4
2018-08-11T04:38:17.056Z,35.3
2018-08-11T04:39:19.498Z,35.5
2018-08-11T04:40:21.665Z,35.4
2018-08-11T04:41:23.835Z,35.4
2018-08-11T04:42:26.278Z,35.3
2018-08-11T04:43:28.158Z,35.3
2018-08-11T04:44:30.313Z,35.4
2018-08-11T04:45:32.229Z,35.3
2018-08-11T04:46:34.381Z,35.3
2018-08-11T04:47:36.560Z,35.3
2018-08-11T04:48:38.727Z,35.3
2018-08-11T04:49:41.172Z,35.4
2018-08-11T04:50:43.636Z,35.3
2018-08-11T04:51:45.810Z,35.4
2018-08-11T04:52:47.983Z,35.3
2018-08-11T04:53:50.177Z,35.3
2018-08-11T04:54:52.627Z,35.4
2018-08-11T04:55:55.069Z,35.3
2018-08-11T04:56:57.542Z,35.2
2018-08-11T04:57:59.706Z,35.2
2018-08-11T04:59:01.884Z,35.3
2018-08-11T05:00:04.329Z,35.4
2018-08-11T05:01:06.502Z,35.4
2018-08-11T05:02:08.680Z,35.3
2018-08-11T05:03:10.911Z,35.3
2018-08-11T05:04:13.358Z,35.2
2018-08-11T05:05:15.263Z,35.3
2018-08-11T05:06:17.435Z,35.3
2018-08-11T05:07:19.885Z,35.3
2018-08-11T05:08:22.338Z,35.3
2018-08-11T05:09:24.781Z,35.3
2018-08-11T05:10:27.236Z,35.2
2018-08-11T05:11:29.685Z,35.2
2018-08-11T05:12:32.121Z,35.4
2018-08-11T05:13:34.570Z,35.2
2018-08-11T05:14:36.211Z,35.3
2018-08-11T05:15:38.401Z,35.3
2018-08-11T05:16:40.840Z,35.2
2018-08-11T05:17:43.282Z,35.2
2018-08-11T05:18:45.737Z,35.2
2018-08-11T05:19:47.959Z,35.2
2018-08-11T05:20:50.212Z,35.3
2018-08-11T05:21:52.367Z,35.3
2018-08-11T05:22:54.804Z,35.3
2018-08-11T05:23:57.252Z,35.3
2018-08-11T05:24:58.848Z,35.2
2018-08-11T05:26:01.046Z,35.4
2018-08-11T05:27:03.498Z,35.2
2018-08-11T05:28:05.946Z,35.3
2018-08-11T05:29:07.851Z,35.2
2018-08-11T05:30:10.304Z,35.2
2018-08-11T05:31:12.456Z,35.4
2018-08-11T05:32:14.640Z,35.2
2018-08-11T05:33:16.840Z,35.2
2018-08-11T05:34:19.769Z,35.2
2018-08-11T05:35:21.955Z,35.1
2018-08-11T05:36:24.401Z,35.2
2018-08-11T05:37:26.569Z,35.1
2018-08-11T05:38:28.736Z,35.1
2018-08-11T05:39:30.929Z,35.2
2018-08-11T05:40:33.124Z,35.2
2018-08-11T05:41:35.431Z,35.2
2018-08-11T05:42:37.719Z,35.1
2018-08-11T05:43:39.897Z,35.1
2018-08-11T05:44:42.359Z,35.2
2018-08-11T05:45:44.535Z,35.2
2018-08-11T05:46:47.004Z,35.2
2018-08-11T05:47:48.910Z,35.2
2018-08-11T05:48:51.098Z,35.2
2018-08-11T05:49:53.541Z,35.3
2018-08-11T05:50:55.992Z,35.1
2018-08-11T05:51:58.437Z,35.2
2018-08-11T05:53:00.617Z,35.2
2018-08-11T05:54:02.797Z,35.1
2018-08-11T05:55:05.291Z,35.2
2018-08-11T05:56:07.278Z,35.2
2018-08-11T05:57:09.443Z,35.1
2018-08-11T05:58:11.359Z,35.2
2018-08-11T05:59:13.272Z,35.3
2018-08-11T06:00:15.175Z,35.2
2018-08-11T06:01:17.350Z,35.2
2018-08-11T06:02:19.518Z,35.2
2018-08-11T06:03:21.737Z,35.1
2018-08-11T06:04:24.184Z,35.2
2018-08-11T06:05:26.101Z,35.1
2018-08-11T06:06:28.007Z,35.2
2018-08-11T06:07:30.192Z,35.2
2018-08-11T06:08:32.340Z,35.2
2018-08-11T06:09:34.804Z,35.2
2018-08-11T06:10:37.420Z,35.1
2018-08-11T06:11:39.965Z,35.2
2018-08-11T06:12:42.420Z,35.2
2018-08-11T06:13:44.591Z,35.2
2018-08-11T06:14:47.049Z,35.1
2018-08-11T06:15:49.191Z,35.3
2018-08-11T06:16:51.640Z,35.2
2018-08-11T06:17:53.798Z,35.2
2018-08-11T06:18:55.415Z,35.2
2018-08-11T06:19:57.869Z,35.2
2018-08-11T06:20:59.803Z,35.1
2018-08-11T06:22:02.320Z,35.2
2018-08-11T06:23:04.517Z,35.2
2018-08-11T06:24:06.684Z,35.2
2018-08-11T06:25:09.145Z,35.2
2018-08-11T06:26:11.330Z,35.2
2018-08-11T06:27:13.207Z,35.2
2018-08-11T06:28:15.662Z,35.2
2018-08-11T06:29:18.111Z,35.1
2018-08-11T06:30:20.570Z,35.2
2018-08-11T06:31:22.695Z,35.1
2018-08-11T06:32:25.222Z,35.2
2018-08-11T06:33:27.669Z,35.1
2018-08-11T06:34:30.135Z,35.1
2018-08-11T06:35:31.999Z,35.1
2018-08-11T06:36:34.443Z,35.2
2018-08-11T06:37:36.347Z,35.1
2018-08-11T06:38:38.533Z,35.2
2018-08-11T06:39:40.702Z,35.1
2018-08-11T06:40:43.355Z,35.2
2018-08-11T06:41:45.503Z,35.1
2018-08-11T06:42:47.414Z,35.1
2018-08-11T06:43:49.612Z,35.1
2018-08-11T06:44:51.517Z,35.2
2018-08-11T06:45:53.693Z,35.1
2018-08-11T06:46:56.209Z,35.1
2018-08-11T06:47:58.500Z,35.1
2018-08-11T06:49:00.646Z,35.1
2018-08-11T06:50:02.833Z,35.2
2018-08-11T06:51:04.732Z,35.2
2018-08-11T06:52:06.910Z,35.1
2018-08-11T06:53:09.360Z,35
2018-08-11T06:54:11.541Z,35.1
2018-08-11T06:55:13.998Z,35.1
2018-08-11T06:56:16.179Z,35.2
2018-08-11T06:57:18.318Z,35.2
2018-08-11T06:58:20.482Z,35.1
2018-08-11T06:59:22.105Z,35.1
2018-08-11T07:00:24.572Z,35.1
2018-08-11T07:01:26.738Z,35.2
2018-08-11T07:02:28.903Z,35.1
2018-08-11T07:03:30.555Z,35.2
2018-08-11T07:04:33.007Z,35.1
2018-08-11T07:05:35.165Z,35.2
2018-08-11T07:06:37.509Z,35.1
2018-08-11T07:07:39.520Z,35.2
2018-08-11T07:08:41.407Z,35.1
2018-08-11T07:09:43.586Z,35.2
2018-08-11T07:10:46.043Z,35.1
2018-08-11T07:11:47.954Z,35.1
2018-08-11T07:12:50.410Z,35.2
2018-08-11T07:13:52.879Z,35.1
2018-08-11T07:14:55.340Z,35.1
2018-08-11T07:15:57.790Z,35.2
2018-08-11T07:17:00.254Z,35.1
2018-08-11T07:18:02.694Z,35.1
2018-08-11T07:19:05.138Z,35
2018-08-11T07:20:07.595Z,35.1
2018-08-11T07:21:10.110Z,35
2018-08-11T07:22:12.302Z,35.2
2018-08-11T07:23:14.506Z,35.2
2018-08-11T07:24:16.699Z,35.2
2018-08-11T07:25:19.178Z,35
2018-08-11T07:26:21.406Z,35.1
2018-08-11T07:27:23.638Z,35.2
2018-08-11T07:28:25.821Z,35.1
2018-08-11T07:29:28.036Z,35.2
2018-08-11T07:30:30.205Z,35.1
2018-08-11T07:31:32.357Z,35.2
2018-08-11T07:32:34.802Z,35.1
2018-08-11T07:33:36.977Z,35.1
2018-08-11T07:34:39.423Z,35.2
2018-08-11T07:35:41.886Z,35.2
2018-08-11T07:36:44.504Z,35.1
2018-08-11T07:37:47.583Z,35.1
2018-08-11T07:38:50.937Z,35.2
2018-08-11T07:39:53.263Z,35.1
2018-08-11T07:40:55.522Z,35.1
2018-08-11T07:41:57.669Z,35.1
2018-08-11T07:42:59.853Z,35.3
2018-08-11T07:44:02.295Z,35.1
2018-08-11T07:45:04.742Z,35.1
2018-08-11T07:46:06.914Z,35.2
2018-08-11T07:47:09.096Z,35.1
2018-08-11T07:48:11.551Z,35.2
2018-08-11T07:49:13.712Z,35.2
2018-08-11T07:50:16.012Z,35.1
2018-08-11T07:51:17.692Z,35.2
2018-08-11T07:52:19.856Z,35.1
2018-08-11T07:53:22.027Z,35.2
2018-08-11T07:54:24.470Z,35.1
2018-08-11T07:55:26.918Z,35.1
2018-08-11T07:56:28.815Z,35.1
2018-08-11T07:57:30.997Z,35.2
2018-08-11T07:58:33.427Z,35.2
2018-08-11T07:59:35.871Z,35.1
2018-08-11T08:00:38.319Z,35.1
2018-08-11T08:01:40.777Z,34.9
2018-08-11T08:02:43.227Z,35.1
2018-08-11T08:03:45.671Z,35.2
2018-08-11T08:04:48.120Z,35.2
2018-08-11T08:05:50.301Z,35.1
2018-08-11T08:06:52.778Z,35.2
2018-08-11T08:07:54.681Z,35.1
2018-08-11T08:08:56.650Z,35.2
2018-08-11T08:09:58.818Z,35.1
2018-08-11T08:11:01.018Z,35.1
2018-08-11T08:12:03.196Z,35.1
2018-08-11T08:13:05.639Z,35.1
2018-08-11T08:14:07.547Z,35
2018-08-11T08:15:09.453Z,35.2
2018-08-11T08:16:11.900Z,35
2018-08-11T08:17:14.349Z,35.1
2018-08-11T08:18:16.812Z,35
2018-08-11T08:19:19.267Z,35
2018-08-11T08:20:21.198Z,35.1
2018-08-11T08:21:23.641Z,35.1
2018-08-11T08:22:25.562Z,35.1
2018-08-11T08:23:27.747Z,35.1
2018-08-11T08:24:30.200Z,35.1
2018-08-11T08:25:32.403Z,35
2018-08-11T08:26:35.274Z,35
2018-08-11T08:27:37.930Z,34.9
2018-08-11T08:28:39.837Z,35.2
2018-08-11T08:29:41.724Z,35.1
2018-08-11T08:30:43.911Z,35.1
2018-08-11T08:31:45.811Z,35
2018-08-11T08:32:47.994Z,35.2
2018-08-11T08:33:50.318Z,35.1
2018-08-11T08:34:52.621Z,35.1
2018-08-11T08:35:54.789Z,35
2018-08-11T08:36:56.968Z,35.1
2018-08-11T08:37:59.160Z,35.1
2018-08-11T08:39:01.618Z,35
2018-08-11T08:40:04.053Z,35
2018-08-11T08:41:05.964Z,35.1
2018-08-11T08:42:07.849Z,35
2018-08-11T08:43:10.048Z,35
2018-08-11T08:44:12.217Z,35.1
2018-08-11T08:45:14.676Z,35.1
2018-08-11T08:46:16.591Z,35.1
2018-08-11T08:47:18.796Z,35.1
2018-08-11T08:48:21.339Z,34.9
2018-08-11T08:49:23.794Z,34.9
2018-08-11T08:50:25.668Z,35.1
2018-08-11T08:51:27.878Z,35
2018-08-11T08:52:29.804Z,35
2018-08-11T08:53:32.297Z,35.1
2018-08-11T08:54:34.501Z,35.1
2018-08-11T08:55:36.962Z,35
2018-08-11T08:56:39.435Z,35
2018-08-11T08:57:41.595Z,35
2018-08-11T08:58:43.777Z,34.9
2018-08-11T08:59:46.260Z,34.9
2018-08-11T09:00:48.723Z,35
2018-08-11T09:01:51.178Z,35
2018-08-11T09:02:53.077Z,35
2018-08-11T09:03:55.523Z,34.9
2018-08-11T09:04:57.850Z,35
2018-08-11T09:06:00.500Z,34.9
2018-08-11T09:07:02.120Z,35
2018-08-11T09:08:04.270Z,35
2018-08-11T09:09:06.728Z,35.1
2018-08-11T09:10:08.606Z,35
2018-08-11T09:11:11.050Z,35
2018-08-11T09:12:13.236Z,35
2018-08-11T09:13:15.404Z,34.9
2018-08-11T09:14:17.863Z,34.9
2018-08-11T09:15:19.767Z,35
2018-08-11T09:16:21.946Z,35
2018-08-11T09:17:24.392Z,35.1
2018-08-11T09:18:26.546Z,34.9
2018-08-11T09:19:28.901Z,35
2018-08-11T09:20:31.242Z,35
2018-08-11T09:21:33.689Z,34.8
2018-08-11T09:22:35.588Z,35
2018-08-11T09:23:38.040Z,35
2018-08-11T09:24:40.480Z,35.1
2018-08-11T09:25:42.365Z,35
2018-08-11T09:26:44.809Z,34.9
2018-08-11T09:27:46.993Z,35
2018-08-11T09:28:49.212Z,34.9
2018-08-11T09:29:51.384Z,35
2018-08-11T09:30:53.563Z,35.1
2018-08-11T09:31:55.716Z,34.9
2018-08-11T09:32:57.901Z,34.9
2018-08-11T09:33:59.807Z,35
2018-08-11T09:35:02.249Z,35
2018-08-11T09:36:04.685Z,35.1
2018-08-11T09:37:06.872Z,34.9
2018-08-11T09:38:08.777Z,34.9
2018-08-11T09:39:10.926Z,34.9
2018-08-11T09:40:13.377Z,35
2018-08-11T09:41:15.831Z,34.9
2018-08-11T09:42:18.286Z,35
2018-08-11T09:43:20.476Z,35
2018-08-11T09:44:22.401Z,35.1
2018-08-11T09:45:24.546Z,35
2018-08-11T09:46:26.450Z,35
2018-08-11T09:47:28.628Z,35.1
2018-08-11T09:48:31.079Z,35
2018-08-11T09:49:33.543Z,35
2018-08-11T09:50:35.462Z,35
2018-08-11T09:51:37.356Z,35
2018-08-11T09:52:39.542Z,35
2018-08-11T09:53:41.979Z,35.2
2018-08-11T09:54:44.427Z,34.9
2018-08-11T09:55:46.604Z,35
2018-08-11T09:56:49.059Z,35.1
2018-08-11T09:57:50.987Z,35
2018-08-11T09:58:53.281Z,34.9
2018-08-11T09:59:55.429Z,34.9
2018-08-11T10:00:57.628Z,34.9
2018-08-11T10:02:00.079Z,35
2018-08-11T10:03:02.260Z,35
2018-08-11T10:04:04.158Z,35
2018-08-11T10:05:06.728Z,35
2018-08-11T10:06:09.119Z,35
2018-08-11T10:07:10.738Z,35
2018-08-11T10:08:12.905Z,35.2
2018-08-11T10:09:15.079Z,35.1
2018-08-11T10:10:17.547Z,35.2
2018-08-11T10:11:20.000Z,34.9
2018-08-11T10:12:22.202Z,35
2018-08-11T10:13:24.381Z,35
2018-08-11T10:14:26.546Z,35
2018-08-11T10:15:28.989Z,35.1
2018-08-11T10:16:30.909Z,35.1
2018-08-11T10:17:33.085Z,35
2018-08-11T10:18:35.429Z,35.1
2018-08-11T10:19:38.262Z,34.9
2018-08-11T10:20:40.726Z,35
2018-08-11T10:21:43.174Z,35
2018-08-11T10:22:45.076Z,35.1
2018-08-11T10:23:47.528Z,34.9
2018-08-11T10:24:49.965Z,35.1
2018-08-11T10:25:51.868Z,35
2018-08-11T10:26:54.316Z,34.8
2018-08-11T10:27:56.771Z,34.9
2018-08-11T10:28:59.211Z,35
2018-08-11T10:30:01.098Z,35
2018-08-11T10:31:03.269Z,35
2018-08-11T10:32:05.718Z,35
2018-08-11T10:33:07.913Z,34.9
2018-08-11T10:34:10.357Z,35
2018-08-11T10:35:12.808Z,35
2018-08-11T10:36:15.246Z,34.9
2018-08-11T10:37:17.700Z,35
2018-08-11T10:38:20.146Z,35
2018-08-11T10:39:22.613Z,34.9
2018-08-11T10:40:25.072Z,34.9
2018-08-11T10:41:27.528Z,35
2018-08-11T10:42:30.006Z,34.8
2018-08-11T10:43:31.909Z,35
2018-08-11T10:44:33.807Z,35.1
2018-08-11T10:45:35.703Z,35
2018-08-11T10:46:37.892Z,34.9
2018-08-11T10:47:40.344Z,35.1
2018-08-11T10:48:42.789Z,34.9
2018-08-11T10:49:45.244Z,35.1
2018-08-11T10:50:47.696Z,34.9
2018-08-11T10:51:49.851Z,35
2018-08-11T10:52:52.303Z,35.1
2018-08-11T10:53:54.459Z,35
2018-08-11T10:54:56.634Z,35
2018-08-11T10:55:58.919Z,34.9
2018-08-11T10:57:00.918Z,35
2018-08-11T10:58:03.118Z,35
2018-08-11T10:59:05.291Z,35
2018-08-11T11:00:07.759Z,35
2018-08-11T11:01:10.305Z,34.9
2018-08-11T11:02:12.638Z,35
2018-08-11T11:03:14.817Z,34.9
2018-08-11T11:04:17.272Z,35
2018-08-11T11:05:19.720Z,35
2018-08-11T11:06:21.612Z,34.9
2018-08-11T11:07:23.601Z,34.9
2018-08-11T11:08:25.922Z,34.9
2018-08-11T11:09:28.761Z,35
2018-08-11T11:10:30.945Z,35
2018-08-11T11:11:33.391Z,34.9
2018-08-11T11:12:35.561Z,34.8
2018-08-11T11:13:37.430Z,35
2018-08-11T11:14:39.619Z,34.9
2018-08-11T11:15:41.511Z,35.1
2018-08-11T11:16:43.955Z,34.9
2018-08-11T11:17:45.863Z,35
2018-08-11T11:18:48.313Z,35
2018-08-11T11:19:50.487Z,34.8
2018-08-11T11:20:52.696Z,35
2018-08-11T11:21:55.041Z,35.1
2018-08-11T11:22:57.224Z,35.1
2018-08-11T11:23:59.400Z,34.9
2018-08-11T11:25:01.853Z,35
2018-08-11T11:26:04.304Z,35
2018-08-11T11:27:06.477Z,35
2018-08-11T11:28:08.933Z,34.9
2018-08-11T11:29:11.132Z,35.1
2018-08-11T11:30:13.581Z,35
2018-08-11T11:31:16.018Z,35
2018-08-11T11:32:18.206Z,35
2018-08-11T11:33:20.656Z,35
2018-08-11T11:34:22.799Z,34.9
2018-08-11T11:35:24.716Z,35.1
2018-08-11T11:36:27.175Z,35.1
2018-08-11T11:37:29.126Z,35
2018-08-11T11:38:31.310Z,35.1
2018-08-11T11:39:33.215Z,35
2018-08-11T11:40:35.674Z,35
2018-08-11T11:41:37.846Z,35
2018-08-11T11:42:40.020Z,35.1
2018-08-11T11:43:42.252Z,35.1
2018-08-11T11:44:44.195Z,35
2018-08-11T11:45:46.656Z,35
2018-08-11T11:46:49.115Z,34.9
2018-08-11T11:47:50.721Z,35.1
2018-08-11T11:48:53.159Z,35
2018-08-11T11:49:55.610Z,35
2018-08-11T11:50:57.785Z,35
2018-08-11T11:51:59.665Z,35.1
2018-08-11T11:53:01.880Z,35
2018-08-11T11:54:04.320Z,34.9
2018-08-11T11:55:06.509Z,35
2018-08-11T11:56:08.698Z,35.1
2018-08-11T11:57:10.885Z,35
2018-08-11T11:58:13.340Z,35.1
2018-08-11T11:59:15.512Z,34.9
2018-08-11T12:00:17.681Z,35.1
2018-08-11T12:01:19.836Z,35.2
2018-08-11T12:02:22.013Z,35
2018-08-11T12:03:24.469Z,35.1
2018-08-11T12:04:26.658Z,35.2
2018-08-11T12:05:29.115Z,35.1
2018-08-11T12:06:31.019Z,35.1
2018-08-11T12:07:33.205Z,35.1
2018-08-11T12:08:35.085Z,35.1
2018-08-11T12:09:37.258Z,35.1
2018-08-11T12:10:39.184Z,35
2018-08-11T12:11:41.378Z,35.1
2018-08-11T12:12:43.246Z,35.1
2018-08-11T12:13:45.696Z,35.1
2018-08-11T12:14:47.880Z,35
2018-08-11T12:15:49.789Z,35
2018-08-11T12:16:51.955Z,35
2018-08-11T12:17:54.134Z,35.2
2018-08-11T12:18:56.603Z,35.2
2018-08-11T12:19:58.754Z,35.1
2018-08-11T12:21:00.930Z,35.1
2018-08-11T12:22:02.856Z,35.1
2018-08-11T12:23:05.301Z,35.2
2018-08-11T12:24:07.211Z,35.1
2018-08-11T12:25:09.093Z,35
2018-08-11T12:26:11.550Z,35.1
2018-08-11T12:27:14.000Z,35
2018-08-11T12:28:15.923Z,35
2018-08-11T12:29:18.103Z,35.3
2018-08-11T12:30:20.320Z,35
2018-08-11T12:31:22.770Z,35.1
2018-08-11T12:32:24.925Z,35
2018-08-11T12:33:27.126Z,35.1
2018-08-11T12:34:29.574Z,35.1
2018-08-11T12:35:32.037Z,35.1
2018-08-11T12:36:34.497Z,35.1
2018-08-11T12:37:36.645Z,35
2018-08-11T12:38:38.829Z,35.1
2018-08-11T12:39:41.273Z,35.2
2018-08-11T12:40:43.719Z,35
2018-08-11T12:41:45.901Z,35
2018-08-11T12:42:47.807Z,35
2018-08-11T12:43:49.946Z,35.1
2018-08-11T12:44:52.133Z,35.2
2018-08-11T12:45:53.815Z,35.1
2018-08-11T12:46:56.479Z,35.1
2018-08-11T12:47:58.929Z,35
2018-08-11T12:49:01.114Z,35.2
2018-08-11T12:50:03.575Z,35.1
2018-08-11T12:51:05.747Z,35.1
2018-08-11T12:52:07.935Z,35
2018-08-11T12:53:09.874Z,35.1
2018-08-11T12:54:12.038Z,35.1
2018-08-11T12:55:13.919Z,35
2018-08-11T12:56:16.086Z,35.1
2018-08-11T12:57:18.275Z,35.1
2018-08-11T12:58:20.456Z,35
2018-08-11T12:59:22.359Z,35
2018-08-11T13:00:24.791Z,35
2018-08-11T13:01:27.018Z,35.1
2018-08-11T13:02:29.264Z,35.1
2018-08-11T13:03:31.723Z,35
2018-08-11T13:04:33.919Z,35.1
2018-08-11T13:05:36.368Z,35.1
2018-08-11T13:06:38.828Z,35.2
2018-08-11T13:07:41.277Z,35
2018-08-11T13:08:43.747Z,35.2
2018-08-11T13:09:45.946Z,35.1
2018-08-11T13:10:48.114Z,35
2018-08-11T13:11:49.993Z,35.1
2018-08-11T13:12:52.183Z,35
2018-08-11T13:13:54.330Z,35
2018-08-11T13:14:56.499Z,35.2
2018-08-11T13:15:58.964Z,35.1
2018-08-11T13:17:01.428Z,35.1
2018-08-11T13:18:03.329Z,35.1
2018-08-11T13:19:05.523Z,35
2018-08-11T13:20:07.705Z,35
2018-08-11T13:21:09.629Z,35.2
2018-08-11T13:22:11.804Z,35
2018-08-11T13:23:13.974Z,35
2018-08-11T13:24:16.456Z,35.2
2018-08-11T13:25:18.098Z,35.1
2018-08-11T13:26:20.285Z,35.1
2018-08-11T13:27:22.738Z,35.1
2018-08-11T13:28:24.625Z,35.1
2018-08-11T13:29:27.072Z,35.1
2018-08-11T13:30:28.961Z,35.1
2018-08-11T13:31:31.410Z,35.1
2018-08-11T13:32:33.860Z,35
2018-08-11T13:33:36.308Z,35.1
2018-08-11T13:34:38.250Z,35.1
2018-08-11T13:35:40.428Z,35.2
2018-08-11T13:36:42.904Z,35.1
2018-08-11T13:37:45.362Z,35
2018-08-11T13:38:47.826Z,35.2
2018-08-11T13:39:50.276Z,35.2
2018-08-11T13:40:52.466Z,35.1
2018-08-11T13:41:54.647Z,35.1
2018-08-11T13:42:56.830Z,35.1
2018-08-11T13:43:59.270Z,35.1
2018-08-11T13:45:01.709Z,35.2
2018-08-11T13:46:03.890Z,35.2
2018-08-11T13:47:06.366Z,35.2
2018-08-11T13:48:08.819Z,35.2
2018-08-11T13:49:11.271Z,35.1
2018-08-11T13:50:13.431Z,35.2
2018-08-11T13:51:15.877Z,35.1
2018-08-11T13:52:18.060Z,35.1
2018-08-11T13:53:20.502Z,35.2
2018-08-11T13:54:23.053Z,35.1
2018-08-11T13:55:25.437Z,35.2
2018-08-11T13:56:27.891Z,35.1
2018-08-11T13:57:30.068Z,35.1
2018-08-11T13:58:32.526Z,35.1
2018-08-11T13:59:34.980Z,35.1